sensor_id;sensor_type;location;lat;lon;timestamp;temperature;humidity
37456;DHT22;23316;50.718;7.328;2022-09-09T00:00:13;20.60;54.30
37456;DHT22;23316;50.718;7.328;2022-09-09T00:02:45;20.60;54.40
37456;DHT22;23316;50.718;7.328;2022-09-09T00:05:19;20.60;54.50
37456;DHT22;23316;50.718;7.328;2022-09-09T00:07:54;20.50;54.60
37456;DHT22;23316;50.718;7.328;2022-09-09T00:10:28;20.50;54.60
37456;DHT22;23316;50.718;7.328;2022-09-09T00:13:01;20.50;54.80
37456;DHT22;23316;50.718;7.328;2022-09-09T00:15:32;20.50;54.80
37456;DHT22;23316;50.718;7.328;2022-09-09T00:18:07;20.50;54.90
37456;DHT22;23316;50.718;7.328;2022-09-09T00:20:40;20.50;54.90
37456;DHT22;23316;50.718;7.328;2022-09-09T00:23:12;20.40;55.10
37456;DHT22;23316;50.718;7.328;2022-09-09T00:25:51;20.40;55.00
37456;DHT22;23316;50.718;7.328;2022-09-09T00:28:22;20.40;55.10
37456;DHT22;23316;50.718;7.328;2022-09-09T00:30:49;20.40;55.00
37456;DHT22;23316;50.718;7.328;2022-09-09T00:33:19;20.40;55.00
37456;DHT22;23316;50.718;7.328;2022-09-09T00:35:49;20.40;55.10
37456;DHT22;23316;50.718;7.328;2022-09-09T00:38:20;20.40;55.10
37456;DHT22;23316;50.718;7.328;2022-09-09T00:40:53;20.40;55.10
37456;DHT22;23316;50.718;7.328;2022-09-09T00:43:28;20.30;55.00
37456;DHT22;23316;50.718;7.328;2022-09-09T00:46:17;20.30;55.10
37456;DHT22;23316;50.718;7.328;2022-09-09T00:48:56;20.30;55.10
37456;DHT22;23316;50.718;7.328;2022-09-09T00:51:31;20.30;55.10
37456;DHT22;23316;50.718;7.328;2022-09-09T00:54:29;20.30;55.10
37456;DHT22;23316;50.718;7.328;2022-09-09T00:57:10;20.30;55.20
37456;DHT22;23316;50.718;7.328;2022-09-09T00:59:46;20.30;55.10
37456;DHT22;23316;50.718;7.328;2022-09-09T01:02:16;20.30;55.20
37456;DHT22;23316;50.718;7.328;2022-09-09T01:04:48;20.30;55.00
37456;DHT22;23316;50.718;7.328;2022-09-09T01:07:17;20.30;54.80
37456;DHT22;23316;50.718;7.328;2022-09-09T01:09:55;20.20;54.90
37456;DHT22;23316;50.718;7.328;2022-09-09T01:12:30;20.20;55.10
37456;DHT22;23316;50.718;7.328;2022-09-09T01:15:10;20.10;55.10
37456;DHT22;23316;50.718;7.328;2022-09-09T01:17:49;20.10;55.20
37456;DHT22;23316;50.718;7.328;2022-09-09T01:20:20;20.10;55.40
37456;DHT22;23316;50.718;7.328;2022-09-09T01:23:01;20.10;55.30
37456;DHT22;23316;50.718;7.328;2022-09-09T01:26:10;20.10;55.40
37456;DHT22;23316;50.718;7.328;2022-09-09T01:28:39;20.00;55.50
37456;DHT22;23316;50.718;7.328;2022-09-09T01:31:09;20.00;55.30
37456;DHT22;23316;50.718;7.328;2022-09-09T01:33:38;20.00;55.40
37456;DHT22;23316;50.718;7.328;2022-09-09T01:36:07;19.90;55.30
37456;DHT22;23316;50.718;7.328;2022-09-09T01:38:36;19.90;55.50
37456;DHT22;23316;50.718;7.328;2022-09-09T01:41:05;19.90;55.50
37456;DHT22;23316;50.718;7.328;2022-09-09T01:43:32;19.90;55.60
37456;DHT22;23316;50.718;7.328;2022-09-09T01:46:01;19.80;55.60
37456;DHT22;23316;50.718;7.328;2022-09-09T01:48:29;19.90;55.70
37456;DHT22;23316;50.718;7.328;2022-09-09T01:50:57;19.80;55.70
37456;DHT22;23316;50.718;7.328;2022-09-09T01:53:24;19.80;55.70
37456;DHT22;23316;50.718;7.328;2022-09-09T01:56:00;19.80;55.70
37456;DHT22;23316;50.718;7.328;2022-09-09T01:58:43;19.80;55.80
37456;DHT22;23316;50.718;7.328;2022-09-09T02:01:19;19.70;55.70
37456;DHT22;23316;50.718;7.328;2022-09-09T02:03:52;19.70;55.70
37456;DHT22;23316;50.718;7.328;2022-09-09T02:06:27;19.80;55.80
37456;DHT22;23316;50.718;7.328;2022-09-09T02:08:58;19.80;55.90
37456;DHT22;23316;50.718;7.328;2022-09-09T02:11:27;19.70;55.80
37456;DHT22;23316;50.718;7.328;2022-09-09T02:14:00;19.70;55.90
37456;DHT22;23316;50.718;7.328;2022-09-09T02:16:32;19.70;55.90
37456;DHT22;23316;50.718;7.328;2022-09-09T02:19:08;19.70;55.90
37456;DHT22;23316;50.718;7.328;2022-09-09T02:21:40;19.70;56.00
37456;DHT22;23316;50.718;7.328;2022-09-09T02:24:09;19.70;55.90
37456;DHT22;23316;50.718;7.328;2022-09-09T02:26:40;19.70;55.90
37456;DHT22;23316;50.718;7.328;2022-09-09T02:29:14;19.70;56.00
37456;DHT22;23316;50.718;7.328;2022-09-09T02:31:42;19.70;56.00
37456;DHT22;23316;50.718;7.328;2022-09-09T02:34:12;19.70;56.10
37456;DHT22;23316;50.718;7.328;2022-09-09T02:36:42;19.70;56.10
37456;DHT22;23316;50.718;7.328;2022-09-09T02:39:13;19.60;56.10
37456;DHT22;23316;50.718;7.328;2022-09-09T02:41:41;19.70;56.10
37456;DHT22;23316;50.718;7.328;2022-09-09T02:44:12;19.60;56.60
37456;DHT22;23316;50.718;7.328;2022-09-09T02:47:05;19.60;56.10
37456;DHT22;23316;50.718;7.328;2022-09-09T02:49:41;19.70;56.30
37456;DHT22;23316;50.718;7.328;2022-09-09T02:52:14;19.70;56.10
37456;DHT22;23316;50.718;7.328;2022-09-09T02:54:42;19.60;56.00
37456;DHT22;23316;50.718;7.328;2022-09-09T02:57:12;19.60;56.10
37456;DHT22;23316;50.718;7.328;2022-09-09T02:59:43;19.70;56.10
37456;DHT22;23316;50.718;7.328;2022-09-09T03:02:11;19.60;56.10
37456;DHT22;23316;50.718;7.328;2022-09-09T03:04:38;19.60;56.10
37456;DHT22;23316;50.718;7.328;2022-09-09T03:07:06;19.60;56.10
37456;DHT22;23316;50.718;7.328;2022-09-09T03:09:33;19.60;56.30
37456;DHT22;23316;50.718;7.328;2022-09-09T03:12:01;19.60;56.30
37456;DHT22;23316;50.718;7.328;2022-09-09T03:14:30;19.60;56.40
37456;DHT22;23316;50.718;7.328;2022-09-09T03:20:20;19.50;56.60
37456;DHT22;23316;50.718;7.328;2022-09-09T03:22:48;19.60;56.60
37456;DHT22;23316;50.718;7.328;2022-09-09T03:25:15;19.60;56.60
37456;DHT22;23316;50.718;7.328;2022-09-09T03:27:44;19.50;56.60
37456;DHT22;23316;50.718;7.328;2022-09-09T03:30:11;19.60;56.70
37456;DHT22;23316;50.718;7.328;2022-09-09T03:32:38;19.50;56.60
37456;DHT22;23316;50.718;7.328;2022-09-09T03:35:06;19.50;56.70
37456;DHT22;23316;50.718;7.328;2022-09-09T03:37:35;19.50;56.80
37456;DHT22;23316;50.718;7.328;2022-09-09T03:40:05;19.50;56.80
37456;DHT22;23316;50.718;7.328;2022-09-09T03:42:33;19.50;56.80
37456;DHT22;23316;50.718;7.328;2022-09-09T03:45:03;19.50;56.80
37456;DHT22;23316;50.718;7.328;2022-09-09T03:47:31;19.60;56.90
37456;DHT22;23316;50.718;7.328;2022-09-09T03:49:58;19.50;56.90
37456;DHT22;23316;50.718;7.328;2022-09-09T03:52:25;19.60;56.90
37456;DHT22;23316;50.718;7.328;2022-09-09T03:54:54;19.50;56.90
37456;DHT22;23316;50.718;7.328;2022-09-09T03:57:22;19.50;57.00
37456;DHT22;23316;50.718;7.328;2022-09-09T03:59:51;19.50;57.00
37456;DHT22;23316;50.718;7.328;2022-09-09T04:02:18;19.50;56.90
37456;DHT22;23316;50.718;7.328;2022-09-09T04:04:45;19.50;57.00
37456;DHT22;23316;50.718;7.328;2022-09-09T04:07:12;19.50;57.00
37456;DHT22;23316;50.718;7.328;2022-09-09T04:09:40;19.50;57.00
37456;DHT22;23316;50.718;7.328;2022-09-09T04:12:08;19.50;57.00
37456;DHT22;23316;50.718;7.328;2022-09-09T04:14:39;19.50;57.00
37456;DHT22;23316;50.718;7.328;2022-09-09T04:17:06;19.50;57.10
37456;DHT22;23316;50.718;7.328;2022-09-09T04:19:33;19.50;57.10
37456;DHT22;23316;50.718;7.328;2022-09-09T04:22:01;19.50;57.10
37456;DHT22;23316;50.718;7.328;2022-09-09T04:24:28;19.50;57.10
37456;DHT22;23316;50.718;7.328;2022-09-09T04:26:55;19.50;57.10
37456;DHT22;23316;50.718;7.328;2022-09-09T04:29:24;19.50;57.10
37456;DHT22;23316;50.718;7.328;2022-09-09T04:31:51;19.50;57.20
37456;DHT22;23316;50.718;7.328;2022-09-09T04:34:19;19.50;57.20
37456;DHT22;23316;50.718;7.328;2022-09-09T04:36:46;19.50;57.20
37456;DHT22;23316;50.718;7.328;2022-09-09T04:39:13;19.50;57.30
37456;DHT22;23316;50.718;7.328;2022-09-09T04:41:40;19.50;57.30
37456;DHT22;23316;50.718;7.328;2022-09-09T04:44:07;19.50;57.30
37456;DHT22;23316;50.718;7.328;2022-09-09T04:46:37;19.50;57.40
37456;DHT22;23316;50.718;7.328;2022-09-09T04:49:04;19.60;57.50
37456;DHT22;23316;50.718;7.328;2022-09-09T04:51:31;19.60;57.50
37456;DHT22;23316;50.718;7.328;2022-09-09T04:53:59;19.50;57.40
37456;DHT22;23316;50.718;7.328;2022-09-09T04:56:26;19.60;57.50
37456;DHT22;23316;50.718;7.328;2022-09-09T04:58:54;19.60;57.50
37456;DHT22;23316;50.718;7.328;2022-09-09T05:01:22;19.50;57.40
37456;DHT22;23316;50.718;7.328;2022-09-09T05:03:51;19.60;57.50
37456;DHT22;23316;50.718;7.328;2022-09-09T05:06:20;19.60;57.50
37456;DHT22;23316;50.718;7.328;2022-09-09T05:08:48;19.60;57.60
37456;DHT22;23316;50.718;7.328;2022-09-09T05:11:17;19.60;57.50
37456;DHT22;23316;50.718;7.328;2022-09-09T05:13:46;19.60;57.50
37456;DHT22;23316;50.718;7.328;2022-09-09T05:19:37;19.60;57.70
37456;DHT22;23316;50.718;7.328;2022-09-09T05:22:04;19.60;57.60
37456;DHT22;23316;50.718;7.328;2022-09-09T05:24:31;19.60;57.60
37456;DHT22;23316;50.718;7.328;2022-09-09T05:26:59;19.60;57.60
37456;DHT22;23316;50.718;7.328;2022-09-09T05:29:28;19.60;57.60
37456;DHT22;23316;50.718;7.328;2022-09-09T05:31:55;19.60;57.70
37456;DHT22;23316;50.718;7.328;2022-09-09T05:34:22;19.60;57.70
37456;DHT22;23316;50.718;7.328;2022-09-09T05:36:51;19.60;57.70
37456;DHT22;23316;50.718;7.328;2022-09-09T05:39:19;19.60;57.70
37456;DHT22;23316;50.718;7.328;2022-09-09T05:41:46;19.60;57.60
37456;DHT22;23316;50.718;7.328;2022-09-09T05:44:14;19.70;57.60
37456;DHT22;23316;50.718;7.328;2022-09-09T05:46:41;19.70;57.60
37456;DHT22;23316;50.718;7.328;2022-09-09T05:49:08;19.70;57.60
37456;DHT22;23316;50.718;7.328;2022-09-09T05:51:36;19.70;57.60
37456;DHT22;23316;50.718;7.328;2022-09-09T05:54:04;19.70;57.60
37456;DHT22;23316;50.718;7.328;2022-09-09T05:56:32;19.70;57.60
37456;DHT22;23316;50.718;7.328;2022-09-09T05:58:59;19.70;57.60
37456;DHT22;23316;50.718;7.328;2022-09-09T06:01:29;19.70;57.60
37456;DHT22;23316;50.718;7.328;2022-09-09T06:03:56;19.70;57.60
37456;DHT22;23316;50.718;7.328;2022-09-09T06:06:25;19.70;57.60
37456;DHT22;23316;50.718;7.328;2022-09-09T06:08:55;19.70;57.60
37456;DHT22;23316;50.718;7.328;2022-09-09T06:11:26;19.70;57.60
37456;DHT22;23316;50.718;7.328;2022-09-09T06:13:57;19.80;57.70
37456;DHT22;23316;50.718;7.328;2022-09-09T06:16:25;19.80;57.70
37456;DHT22;23316;50.718;7.328;2022-09-09T06:18:54;19.80;57.80
37456;DHT22;23316;50.718;7.328;2022-09-09T06:21:23;19.80;57.80
37456;DHT22;23316;50.718;7.328;2022-09-09T06:23:53;19.80;57.90
37456;DHT22;23316;50.718;7.328;2022-09-09T06:26:22;19.80;57.90
37456;DHT22;23316;50.718;7.328;2022-09-09T06:28:52;19.80;57.90
37456;DHT22;23316;50.718;7.328;2022-09-09T06:31:21;19.90;58.00
37456;DHT22;23316;50.718;7.328;2022-09-09T06:33:50;19.90;58.00
37456;DHT22;23316;50.718;7.328;2022-09-09T06:36:19;19.90;58.00
37456;DHT22;23316;50.718;7.328;2022-09-09T06:38:47;19.90;58.00
37456;DHT22;23316;50.718;7.328;2022-09-09T06:41:15;20.00;58.10
37456;DHT22;23316;50.718;7.328;2022-09-09T06:43:43;20.00;58.10
37456;DHT22;23316;50.718;7.328;2022-09-09T06:46:16;20.00;58.00
37456;DHT22;23316;50.718;7.328;2022-09-09T06:48:48;20.00;58.00
37456;DHT22;23316;50.718;7.328;2022-09-09T06:51:17;20.10;58.00
37456;DHT22;23316;50.718;7.328;2022-09-09T06:53:46;20.10;58.00
37456;DHT22;23316;50.718;7.328;2022-09-09T06:56:18;20.10;58.00
37456;DHT22;23316;50.718;7.328;2022-09-09T06:58:47;20.10;58.10
37456;DHT22;23316;50.718;7.328;2022-09-09T07:01:17;20.20;58.10
37456;DHT22;23316;50.718;7.328;2022-09-09T07:03:47;20.20;58.10
37456;DHT22;23316;50.718;7.328;2022-09-09T07:06:18;20.30;58.20
37456;DHT22;23316;50.718;7.328;2022-09-09T07:08:49;20.30;58.20
37456;DHT22;23316;50.718;7.328;2022-09-09T07:11:18;20.30;58.00
37456;DHT22;23316;50.718;7.328;2022-09-09T07:13:45;20.40;58.10
37456;DHT22;23316;50.718;7.328;2022-09-09T07:16:14;20.40;58.10
37456;DHT22;23316;50.718;7.328;2022-09-09T07:18:43;20.50;57.70
37456;DHT22;23316;50.718;7.328;2022-09-09T07:21:13;20.50;57.10
37456;DHT22;23316;50.718;7.328;2022-09-09T07:23:40;20.50;56.80
37456;DHT22;23316;50.718;7.328;2022-09-09T07:26:11;20.50;56.70
37456;DHT22;23316;50.718;7.328;2022-09-09T07:28:39;20.60;56.50
37456;DHT22;23316;50.718;7.328;2022-09-09T07:31:12;20.60;56.20
37456;DHT22;23316;50.718;7.328;2022-09-09T07:33:46;20.60;55.80
37456;DHT22;23316;50.718;7.328;2022-09-09T07:36:16;20.70;55.70
37456;DHT22;23316;50.718;7.328;2022-09-09T07:38:54;20.70;55.40
37456;DHT22;23316;50.718;7.328;2022-09-09T07:41:24;20.70;55.00
37456;DHT22;23316;50.718;7.328;2022-09-09T07:43:54;20.70;54.70
37456;DHT22;23316;50.718;7.328;2022-09-09T07:46:23;20.80;54.80
37456;DHT22;23316;50.718;7.328;2022-09-09T07:48:54;20.80;54.60
37456;DHT22;23316;50.718;7.328;2022-09-09T07:51:24;20.80;54.30
37456;DHT22;23316;50.718;7.328;2022-09-09T07:53:53;20.90;54.20
37456;DHT22;23316;50.718;7.328;2022-09-09T07:56:21;20.90;53.90
37456;DHT22;23316;50.718;7.328;2022-09-09T07:58:51;21.00;54.10
37456;DHT22;23316;50.718;7.328;2022-09-09T08:01:21;21.00;53.60
37456;DHT22;23316;50.718;7.328;2022-09-09T08:03:57;21.10;53.30
37456;DHT22;23316;50.718;7.328;2022-09-09T08:06:27;21.10;53.20
37456;DHT22;23316;50.718;7.328;2022-09-09T08:08:55;21.20;53.20
37456;DHT22;23316;50.718;7.328;2022-09-09T08:11:24;21.20;52.80
37456;DHT22;23316;50.718;7.328;2022-09-09T08:13:53;21.30;52.20
37456;DHT22;23316;50.718;7.328;2022-09-09T08:16:24;21.30;52.20
37456;DHT22;23316;50.718;7.328;2022-09-09T08:18:52;21.40;52.00
37456;DHT22;23316;50.718;7.328;2022-09-09T08:21:24;21.40;52.10
37456;DHT22;23316;50.718;7.328;2022-09-09T08:23:55;21.50;51.90
37456;DHT22;23316;50.718;7.328;2022-09-09T08:26:23;21.50;51.80
37456;DHT22;23316;50.718;7.328;2022-09-09T08:28:53;21.50;51.30
37456;DHT22;23316;50.718;7.328;2022-09-09T08:31:22;21.50;51.30
37456;DHT22;23316;50.718;7.328;2022-09-09T08:33:50;21.60;51.00
37456;DHT22;23316;50.718;7.328;2022-09-09T08:36:19;21.60;50.80
37456;DHT22;23316;50.718;7.328;2022-09-09T08:38:49;21.70;50.80
37456;DHT22;23316;50.718;7.328;2022-09-09T08:41:44;21.70;50.60
37456;DHT22;23316;50.718;7.328;2022-09-09T08:44:23;21.70;50.20
37456;DHT22;23316;50.718;7.328;2022-09-09T08:47:00;21.70;50.00
37456;DHT22;23316;50.718;7.328;2022-09-09T08:49:42;21.80;49.70
37456;DHT22;23316;50.718;7.328;2022-09-09T08:52:16;21.80;49.30
37456;DHT22;23316;50.718;7.328;2022-09-09T08:54:46;21.80;49.60
37456;DHT22;23316;50.718;7.328;2022-09-09T08:57:18;21.80;49.70
37456;DHT22;23316;50.718;7.328;2022-09-09T08:59:46;21.80;49.40
37456;DHT22;23316;50.718;7.328;2022-09-09T09:02:17;21.90;49.10
37456;DHT22;23316;50.718;7.328;2022-09-09T09:05:00;21.80;48.80
37456;DHT22;23316;50.718;7.328;2022-09-09T09:07:44;21.90;48.90
37456;DHT22;23316;50.718;7.328;2022-09-09T09:10:24;21.90;49.00
37456;DHT22;23316;50.718;7.328;2022-09-09T09:12:57;22.00;48.40
37456;DHT22;23316;50.718;7.328;2022-09-09T09:15:31;21.90;48.40
37456;DHT22;23316;50.718;7.328;2022-09-09T09:18:00;22.00;48.00
37456;DHT22;23316;50.718;7.328;2022-09-09T09:20:32;22.00;48.10
37456;DHT22;23316;50.718;7.328;2022-09-09T09:23:04;22.00;47.50
37456;DHT22;23316;50.718;7.328;2022-09-09T09:25:35;22.00;47.60
37456;DHT22;23316;50.718;7.328;2022-09-09T09:28:13;22.00;47.40
37456;DHT22;23316;50.718;7.328;2022-09-09T09:30:48;22.10;47.30
37456;DHT22;23316;50.718;7.328;2022-09-09T09:33:20;22.10;47.40
37456;DHT22;23316;50.718;7.328;2022-09-09T09:35:50;22.10;47.30
37456;DHT22;23316;50.718;7.328;2022-09-09T09:38:19;22.20;47.10
37456;DHT22;23316;50.718;7.328;2022-09-09T09:40:50;22.20;47.00
37456;DHT22;23316;50.718;7.328;2022-09-09T09:43:23;22.20;46.90
37456;DHT22;23316;50.718;7.328;2022-09-09T09:45:51;22.30;47.10
37456;DHT22;23316;50.718;7.328;2022-09-09T09:48:18;22.30;46.90
37456;DHT22;23316;50.718;7.328;2022-09-09T09:50:50;22.40;46.50
37456;DHT22;23316;50.718;7.328;2022-09-09T09:53:24;22.40;46.40
37456;DHT22;23316;50.718;7.328;2022-09-09T09:55:58;22.50;46.10
37456;DHT22;23316;50.718;7.328;2022-09-09T09:58:26;22.50;46.10
37456;DHT22;23316;50.718;7.328;2022-09-09T10:00:55;22.60;45.90
37456;DHT22;23316;50.718;7.328;2022-09-09T10:03:25;22.50;46.00
37456;DHT22;23316;50.718;7.328;2022-09-09T10:05:53;22.50;45.40
37456;DHT22;23316;50.718;7.328;2022-09-09T10:08:22;22.60;45.50
37456;DHT22;23316;50.718;7.328;2022-09-09T10:11:02;22.60;45.50
37456;DHT22;23316;50.718;7.328;2022-09-09T10:13:38;22.60;45.50
37456;DHT22;23316;50.718;7.328;2022-09-09T10:16:21;22.60;45.50
37456;DHT22;23316;50.718;7.328;2022-09-09T10:18:59;22.60;45.50
37456;DHT22;23316;50.718;7.328;2022-09-09T10:21:40;22.60;46.00
37456;DHT22;23316;50.718;7.328;2022-09-09T10:24:26;22.70;45.90
37456;DHT22;23316;50.718;7.328;2022-09-09T10:27:01;22.70;45.70
37456;DHT22;23316;50.718;7.328;2022-09-09T10:29:43;22.70;45.60
37456;DHT22;23316;50.718;7.328;2022-09-09T10:32:45;22.70;45.30
37456;DHT22;23316;50.718;7.328;2022-09-09T10:38:17;22.70;45.50
37456;DHT22;23316;50.718;7.328;2022-09-09T10:41:06;22.70;45.50
37456;DHT22;23316;50.718;7.328;2022-09-09T10:46:37;22.80;46.10
37456;DHT22;23316;50.718;7.328;2022-09-09T10:49:16;22.80;45.50
37456;DHT22;23316;50.718;7.328;2022-09-09T10:51:51;22.80;45.00
37456;DHT22;23316;50.718;7.328;2022-09-09T10:54:39;22.90;45.20
37456;DHT22;23316;50.718;7.328;2022-09-09T10:57:13;22.90;44.90
37456;DHT22;23316;50.718;7.328;2022-09-09T10:59:48;22.90;45.00
37456;DHT22;23316;50.718;7.328;2022-09-09T11:02:22;22.90;45.20
37456;DHT22;23316;50.718;7.328;2022-09-09T11:04:57;22.90;45.10
37456;DHT22;23316;50.718;7.328;2022-09-09T11:07:33;23.00;44.80
37456;DHT22;23316;50.718;7.328;2022-09-09T11:10:06;23.00;44.50
37456;DHT22;23316;50.718;7.328;2022-09-09T11:12:36;23.00;44.20
37456;DHT22;23316;50.718;7.328;2022-09-09T11:15:12;23.10;44.40
37456;DHT22;23316;50.718;7.328;2022-09-09T11:17:46;23.10;44.30
37456;DHT22;23316;50.718;7.328;2022-09-09T11:20:15;23.10;44.40
37456;DHT22;23316;50.718;7.328;2022-09-09T11:22:46;23.10;44.70
37456;DHT22;23316;50.718;7.328;2022-09-09T11:25:16;23.20;44.40
37456;DHT22;23316;50.718;7.328;2022-09-09T11:28:00;23.20;44.50
37456;DHT22;23316;50.718;7.328;2022-09-09T11:30:42;23.20;44.60
37456;DHT22;23316;50.718;7.328;2022-09-09T11:33:31;23.30;44.20
37456;DHT22;23316;50.718;7.328;2022-09-09T11:36:16;23.30;44.00
37456;DHT22;23316;50.718;7.328;2022-09-09T11:38:50;23.30;44.00
37456;DHT22;23316;50.718;7.328;2022-09-09T11:41:20;23.30;43.90
37456;DHT22;23316;50.718;7.328;2022-09-09T11:43:49;23.40;43.60
37456;DHT22;23316;50.718;7.328;2022-09-09T11:46:20;23.40;44.10
37456;DHT22;23316;50.718;7.328;2022-09-09T11:48:59;23.40;43.50
37456;DHT22;23316;50.718;7.328;2022-09-09T11:51:28;23.40;43.50
37456;DHT22;23316;50.718;7.328;2022-09-09T11:53:57;23.40;43.40
37456;DHT22;23316;50.718;7.328;2022-09-09T11:56:29;23.40;43.40
37456;DHT22;23316;50.718;7.328;2022-09-09T11:59:00;23.40;43.30
37456;DHT22;23316;50.718;7.328;2022-09-09T12:01:34;23.40;43.30
37456;DHT22;23316;50.718;7.328;2022-09-09T12:04:13;23.40;43.40
37456;DHT22;23316;50.718;7.328;2022-09-09T12:06:43;23.50;44.00
37456;DHT22;23316;50.718;7.328;2022-09-09T12:09:22;23.50;43.80
37456;DHT22;23316;50.718;7.328;2022-09-09T12:11:50;23.60;43.80
37456;DHT22;23316;50.718;7.328;2022-09-09T12:14:22;23.60;43.80
37456;DHT22;23316;50.718;7.328;2022-09-09T12:16:51;23.60;43.70
37456;DHT22;23316;50.718;7.328;2022-09-09T12:19:20;23.70;43.70
37456;DHT22;23316;50.718;7.328;2022-09-09T12:21:57;23.70;43.80
37456;DHT22;23316;50.718;7.328;2022-09-09T12:24:30;23.70;43.80
37456;DHT22;23316;50.718;7.328;2022-09-09T12:27:06;23.80;43.70
37456;DHT22;23316;50.718;7.328;2022-09-09T12:29:41;23.80;43.70
37456;DHT22;23316;50.718;7.328;2022-09-09T12:32:14;23.80;43.70
37456;DHT22;23316;50.718;7.328;2022-09-09T12:34:46;23.90;43.30
37456;DHT22;23316;50.718;7.328;2022-09-09T12:37:23;23.90;43.30
37456;DHT22;23316;50.718;7.328;2022-09-09T12:39:54;24.00;42.90
37456;DHT22;23316;50.718;7.328;2022-09-09T12:42:23;24.00;43.00
37456;DHT22;23316;50.718;7.328;2022-09-09T12:44:55;24.00;42.70
37456;DHT22;23316;50.718;7.328;2022-09-09T12:47:27;24.00;42.50
37456;DHT22;23316;50.718;7.328;2022-09-09T12:49:57;24.00;42.40
37456;DHT22;23316;50.718;7.328;2022-09-09T12:52:28;24.00;42.50
37456;DHT22;23316;50.718;7.328;2022-09-09T12:54:59;24.00;42.60
37456;DHT22;23316;50.718;7.328;2022-09-09T12:57:31;24.00;42.30
37456;DHT22;23316;50.718;7.328;2022-09-09T13:00:10;24.00;42.10
37456;DHT22;23316;50.718;7.328;2022-09-09T13:02:48;24.00;42.20
37456;DHT22;23316;50.718;7.328;2022-09-09T13:05:19;24.00;42.10
37456;DHT22;23316;50.718;7.328;2022-09-09T13:07:47;24.00;42.20
37456;DHT22;23316;50.718;7.328;2022-09-09T13:10:21;24.00;42.40
37456;DHT22;23316;50.718;7.328;2022-09-09T13:12:50;24.00;42.20
37456;DHT22;23316;50.718;7.328;2022-09-09T13:15:21;24.00;42.20
37456;DHT22;23316;50.718;7.328;2022-09-09T13:17:54;23.90;42.10
37456;DHT22;23316;50.718;7.328;2022-09-09T13:20:22;23.90;42.30
37456;DHT22;23316;50.718;7.328;2022-09-09T13:22:51;23.90;42.50
37456;DHT22;23316;50.718;7.328;2022-09-09T13:25:22;23.90;42.40
37456;DHT22;23316;50.718;7.328;2022-09-09T13:27:54;23.90;42.40
37456;DHT22;23316;50.718;7.328;2022-09-09T13:30:24;23.90;42.30
37456;DHT22;23316;50.718;7.328;2022-09-09T13:33:04;23.90;42.10
37456;DHT22;23316;50.718;7.328;2022-09-09T13:35:31;23.90;42.20
37456;DHT22;23316;50.718;7.328;2022-09-09T13:38:06;23.90;42.40
37456;DHT22;23316;50.718;7.328;2022-09-09T13:40:34;23.90;42.30
37456;DHT22;23316;50.718;7.328;2022-09-09T13:43:02;23.80;42.50
37456;DHT22;23316;50.718;7.328;2022-09-09T13:45:31;23.80;43.50
37456;DHT22;23316;50.718;7.328;2022-09-09T13:48:10;23.80;43.70
37456;DHT22;23316;50.718;7.328;2022-09-09T13:50:39;23.80;44.10
37456;DHT22;23316;50.718;7.328;2022-09-09T13:53:07;23.80;44.60
37456;DHT22;23316;50.718;7.328;2022-09-09T13:55:36;23.80;44.60
37456;DHT22;23316;50.718;7.328;2022-09-09T13:58:05;23.70;45.10
37456;DHT22;23316;50.718;7.328;2022-09-09T14:00:33;23.80;45.50
37456;DHT22;23316;50.718;7.328;2022-09-09T14:03:01;23.80;45.90
37456;DHT22;23316;50.718;7.328;2022-09-09T14:05:30;23.80;45.70
37456;DHT22;23316;50.718;7.328;2022-09-09T14:07:58;23.80;45.90
37456;DHT22;23316;50.718;7.328;2022-09-09T14:10:26;23.80;46.20
37456;DHT22;23316;50.718;7.328;2022-09-09T14:12:53;23.80;46.20
37456;DHT22;23316;50.718;7.328;2022-09-09T14:15:20;23.80;46.10
37456;DHT22;23316;50.718;7.328;2022-09-09T14:17:48;23.90;46.00
37456;DHT22;23316;50.718;7.328;2022-09-09T14:20:15;23.90;45.70
37456;DHT22;23316;50.718;7.328;2022-09-09T14:22:44;23.90;45.50
37456;DHT22;23316;50.718;7.328;2022-09-09T14:25:12;23.80;45.90
37456;DHT22;23316;50.718;7.328;2022-09-09T14:27:40;23.90;45.50
37456;DHT22;23316;50.718;7.328;2022-09-09T14:30:09;23.90;45.70
37456;DHT22;23316;50.718;7.328;2022-09-09T14:32:36;23.90;45.70
37456;DHT22;23316;50.718;7.328;2022-09-09T14:35:04;23.90;46.00
37456;DHT22;23316;50.718;7.328;2022-09-09T14:37:31;23.90;46.20
37456;DHT22;23316;50.718;7.328;2022-09-09T14:40:00;23.90;46.00
37456;DHT22;23316;50.718;7.328;2022-09-09T14:42:27;23.90;46.30
37456;DHT22;23316;50.718;7.328;2022-09-09T14:44:56;23.90;46.30
37456;DHT22;23316;50.718;7.328;2022-09-09T14:47:23;23.90;45.60
37456;DHT22;23316;50.718;7.328;2022-09-09T14:49:50;23.90;45.10
37456;DHT22;23316;50.718;7.328;2022-09-09T14:52:17;23.90;44.90
37456;DHT22;23316;50.718;7.328;2022-09-09T14:54:44;23.80;44.80
37456;DHT22;23316;50.718;7.328;2022-09-09T14:57:13;23.80;44.60
37456;DHT22;23316;50.718;7.328;2022-09-09T14:59:40;23.80;44.80
37456;DHT22;23316;50.718;7.328;2022-09-09T15:02:08;23.70;44.80
37456;DHT22;23316;50.718;7.328;2022-09-09T15:04:36;23.70;45.30
37456;DHT22;23316;50.718;7.328;2022-09-09T15:07:03;23.60;45.40
37456;DHT22;23316;50.718;7.328;2022-09-09T15:09:30;23.60;45.90
37456;DHT22;23316;50.718;7.328;2022-09-09T15:11:57;23.50;46.40
37456;DHT22;23316;50.718;7.328;2022-09-09T15:14:26;23.50;46.50
37456;DHT22;23316;50.718;7.328;2022-09-09T15:16:53;23.50;47.00
37456;DHT22;23316;50.718;7.328;2022-09-09T15:19:20;23.40;47.30
37456;DHT22;23316;50.718;7.328;2022-09-09T15:21:48;23.40;47.60
37456;DHT22;23316;50.718;7.328;2022-09-09T15:24:15;23.40;47.50
37456;DHT22;23316;50.718;7.328;2022-09-09T15:26:42;23.40;47.50
37456;DHT22;23316;50.718;7.328;2022-09-09T15:29:09;23.30;47.40
37456;DHT22;23316;50.718;7.328;2022-09-09T15:31:38;23.20;47.50
37456;DHT22;23316;50.718;7.328;2022-09-09T15:34:06;23.30;47.50
37456;DHT22;23316;50.718;7.328;2022-09-09T15:36:35;23.20;47.90
37456;DHT22;23316;50.718;7.328;2022-09-09T15:39:04;23.10;48.00
37456;DHT22;23316;50.718;7.328;2022-09-09T15:41:32;23.10;48.00
37456;DHT22;23316;50.718;7.328;2022-09-09T15:44:01;23.10;48.30
37456;DHT22;23316;50.718;7.328;2022-09-09T15:46:30;23.10;48.30
37456;DHT22;23316;50.718;7.328;2022-09-09T15:49:04;23.10;48.40
37456;DHT22;23316;50.718;7.328;2022-09-09T15:51:32;23.10;48.40
37456;DHT22;23316;50.718;7.328;2022-09-09T15:53:59;23.00;48.40
37456;DHT22;23316;50.718;7.328;2022-09-09T15:56:28;23.00;48.50
37456;DHT22;23316;50.718;7.328;2022-09-09T15:58:56;23.00;48.60
37456;DHT22;23316;50.718;7.328;2022-09-09T16:01:25;23.00;48.50
37456;DHT22;23316;50.718;7.328;2022-09-09T16:03:53;23.00;48.60
37456;DHT22;23316;50.718;7.328;2022-09-09T16:06:23;23.00;48.60